Melbourne, Washington
Current Conditions -  °F | °C
As of 1:53 AM on Sunday 21 Dec 2014 (Local Time) from KSHN Reporting Station
Few Clouds Few Clouds  
Wind Chill: 50°   Ceiling: Unl
Heat Index: 50°   Visibility: 10mi
Dew Point: 47°   Wind: 21mph
Humidity: 89%   Direction: 240°WSW
Pressure: 29.67"   Gusts: NA
Location:  47.555°N, 123.746°W
Report Text: KSHN 210953Z AUTO 24018KT 10SM FEW017 10/08 A2967 RMK AO2 PK WND 23027/0913 PRESRR SLP049 T01000083
Loading
Personal Weather Stations






























Interactive Weather Map New forecast layout! Learn more

10-Day Weather Forecast

Advertisements
Track Severe Weather on mobile